Terminal Aerodrome Forecast
Issued by NWS

Home | Current Version | Previous Version | Text Only | Print | Product List | Glossary On
Versions: 1 2 3 4 5 6 7 8 9 10 11 12 13 14 15 16
321
FTUS42 KMLB 262031 AAA
TAFLEE
TAF AMD
KLEE 262031Z 2621/2718 20007KT P6SM VCTS SCT050CB SCT300
     FM262300 15005KT P6SM SCT050 BKN300
     FM270600 VRB04KT P6SM SKC=

USA.gov is the U.S. government's official web portal to all federal, state and local government web resources and services.